sensor_id;sensor_type;location;lat;lon;timestamp;pressure;altitude;pressure_sealevel;temperature;humidity
18014;BME280;9132;47.946;10.394;2024-03-23T00:52:12;93519.94;;;10.30;89.70
18014;BME280;9132;47.946;10.394;2024-03-23T00:54:37;93521.19;;;10.28;89.81
18014;BME280;9132;47.946;10.394;2024-03-23T00:57:04;93518.56;;;10.28;90.17
18014;BME280;9132;47.946;10.394;2024-03-23T00:59:29;93517.53;;;10.29;89.93
18014;BME280;9132;47.946;10.394;2024-03-23T01:01:56;93512.47;;;10.27;89.88
18014;BME280;9132;47.946;10.394;2024-03-23T01:04:22;93509.03;;;10.27;90.10
18014;BME280;9132;47.946;10.394;2024-03-23T01:06:48;93502.75;;;10.28;90.03
18014;BME280;9132;47.946;10.394;2024-03-23T01:09:15;93500.31;;;10.26;90.87
18014;BME280;9132;47.946;10.394;2024-03-23T01:11:42;93493.59;;;10.17;90.75
18014;BME280;9132;47.946;10.394;2024-03-23T01:14:07;93489.97;;;10.11;91.41
18014;BME280;9132;47.946;10.394;2024-03-23T01:16:34;93486.53;;;10.04;91.55
18014;BME280;9132;47.946;10.394;2024-03-23T01:18:59;93486.97;;;10.01;91.89
18014;BME280;9132;47.946;10.394;2024-03-23T01:21:26;93478.63;;;10.04;91.67
18014;BME280;9132;47.946;10.394;2024-03-23T01:23:51;93487.56;;;10.03;92.20
18014;BME280;9132;47.946;10.394;2024-03-23T01:26:19;93476.81;;;10.05;91.98
18014;BME280;9132;47.946;10.394;2024-03-23T01:28:45;93479.06;;;10.01;92.77
18014;BME280;9132;47.946;10.394;2024-03-23T01:31:11;93480.50;;;9.97;92.96
18014;BME280;9132;47.946;10.394;2024-03-23T01:33:37;93472.38;;;9.92;93.53
18014;BME280;9132;47.946;10.394;2024-03-23T01:36:04;93479.09;;;9.88;94.24
18014;BME280;9132;47.946;10.394;2024-03-23T01:38:30;93470.78;;;9.84;94.04
18014;BME280;9132;47.946;10.394;2024-03-23T01:40:57;93475.25;;;9.84;94.62
18014;BME280;9132;47.946;10.394;2024-03-23T01:43:24;93462.69;;;9.79;94.73
18014;BME280;9132;47.946;10.394;2024-03-23T01:45:50;93463.50;;;9.80;94.69
18014;BME280;9132;47.946;10.394;2024-03-23T01:48:16;93456.63;;;9.79;95.05
18014;BME280;9132;47.946;10.394;2024-03-23T01:50:42;93453.59;;;9.75;95.18
18014;BME280;9132;47.946;10.394;2024-03-23T01:53:08;93451.13;;;9.73;95.90
18014;BME280;9132;47.946;10.394;2024-03-23T01:55:35;93443.88;;;9.62;95.38
18014;BME280;9132;47.946;10.394;2024-03-23T01:58:00;93437.63;;;9.50;96.67
18014;BME280;9132;47.946;10.394;2024-03-23T02:00:28;93438.22;;;9.39;96.71
18014;BME280;9132;47.946;10.394;2024-03-23T02:02:54;93440.88;;;9.25;98.38
18014;BME280;9132;47.946;10.394;2024-03-23T02:05:21;93442.69;;;9.12;99.09
18014;BME280;9132;47.946;10.394;2024-03-23T02:07:47;93439.25;;;9.04;99.47
18014;BME280;9132;47.946;10.394;2024-03-23T02:10:13;93435.63;;;8.99;99.66
18014;BME280;9132;47.946;10.394;2024-03-23T02:12:40;93431.75;;;8.88;100.00
18014;BME280;9132;47.946;10.394;2024-03-23T02:15:07;93435.56;;;8.79;100.00
18014;BME280;9132;47.946;10.394;2024-03-23T02:17:35;93431.50;;;8.70;100.00
18014;BME280;9132;47.946;10.394;2024-03-23T02:20:03;93424.63;;;8.62;100.00
18014;BME280;9132;47.946;10.394;2024-03-23T02:22:35;93412.09;;;8.57;100.00
18014;BME280;9132;47.946;10.394;2024-03-23T02:25:04;93422.19;;;8.54;100.00
18014;BME280;9132;47.946;10.394;2024-03-23T02:27:30;93419.53;;;8.54;100.00
18014;BME280;9132;47.946;10.394;2024-03-23T02:29:56;93429.47;;;8.52;100.00
18014;BME280;9132;47.946;10.394;2024-03-23T02:32:22;93420.34;;;8.48;100.00
18014;BME280;9132;47.946;10.394;2024-03-23T02:34:48;93420.56;;;8.46;100.00
18014;BME280;9132;47.946;10.394;2024-03-23T02:37:14;93419.34;;;8.49;100.00
18014;BME280;9132;47.946;10.394;2024-03-23T02:39:40;93408.03;;;8.55;100.00
18014;BME280;9132;47.946;10.394;2024-03-23T02:42:07;93412.50;;;8.61;100.00
18014;BME280;9132;47.946;10.394;2024-03-23T02:44:34;93414.75;;;8.71;100.00
18014;BME280;9132;47.946;10.394;2024-03-23T02:46:59;93411.50;;;8.69;100.00
18014;BME280;9132;47.946;10.394;2024-03-23T02:49:26;93414.34;;;8.67;100.00
18014;BME280;9132;47.946;10.394;2024-03-23T02:51:52;93396.56;;;8.96;100.00
18014;BME280;9132;47.946;10.394;2024-03-23T02:54:18;93387.63;;;9.23;98.95
18014;BME280;9132;47.946;10.394;2024-03-23T02:56:44;93385.34;;;9.60;97.10
18014;BME280;9132;47.946;10.394;2024-03-23T02:59:12;93379.41;;;9.78;96.17
18014;BME280;9132;47.946;10.394;2024-03-23T03:01:37;93382.72;;;10.12;94.30
18014;BME280;9132;47.946;10.394;2024-03-23T03:04:04;93370.41;;;10.51;92.74
18014;BME280;9132;47.946;10.394;2024-03-23T03:06:30;93372.34;;;10.62;92.08
18014;BME280;9132;47.946;10.394;2024-03-23T03:08:57;93363.16;;;10.71;91.03
18014;BME280;9132;47.946;10.394;2024-03-23T03:11:23;93364.06;;;10.83;90.90
18014;BME280;9132;47.946;10.394;2024-03-23T03:13:49;93360.41;;;10.84;90.22
18014;BME280;9132;47.946;10.394;2024-03-23T03:16:16;93357.09;;;10.96;88.86
18014;BME280;9132;47.946;10.394;2024-03-23T03:18:43;93351.38;;;10.99;89.16
18014;BME280;9132;47.946;10.394;2024-03-23T03:21:09;93339.03;;;10.93;88.76
18014;BME280;9132;47.946;10.394;2024-03-23T03:23:36;93343.50;;;10.92;88.04
18014;BME280;9132;47.946;10.394;2024-03-23T03:26:02;93344.69;;;10.96;87.88
18014;BME280;9132;47.946;10.394;2024-03-23T03:28:28;93336.66;;;11.09;87.26
18014;BME280;9132;47.946;10.394;2024-03-23T03:30:56;93332.22;;;11.10;87.45
18014;BME280;9132;47.946;10.394;2024-03-23T03:33:23;93330.19;;;11.05;87.40
18014;BME280;9132;47.946;10.394;2024-03-23T03:35:49;93318.84;;;11.05;86.93
18014;BME280;9132;47.946;10.394;2024-03-23T03:38:17;93317.88;;;10.99;87.44
18014;BME280;9132;47.946;10.394;2024-03-23T03:40:42;93309.41;;;10.90;87.91
18014;BME280;9132;47.946;10.394;2024-03-23T03:43:09;93293.63;;;10.84;87.66
18014;BME280;9132;47.946;10.394;2024-03-23T03:45:34;93293.06;;;10.82;87.74
18014;BME280;9132;47.946;10.394;2024-03-23T03:48:01;93290.84;;;10.79;87.77
18014;BME280;9132;47.946;10.394;2024-03-23T03:50:28;93286.66;;;10.71;88.29
18014;BME280;9132;47.946;10.394;2024-03-23T03:52:54;93287.06;;;10.68;88.26
18014;BME280;9132;47.946;10.394;2024-03-23T03:55:20;93287.06;;;10.68;87.99
18014;BME280;9132;47.946;10.394;2024-03-23T03:57:46;93287.63;;;10.77;87.33
18014;BME280;9132;47.946;10.394;2024-03-23T04:00:12;93287.19;;;10.80;87.26
18014;BME280;9132;47.946;10.394;2024-03-23T04:02:39;93283.16;;;10.77;87.52
18014;BME280;9132;47.946;10.394;2024-03-23T04:05:06;93279.34;;;10.73;87.85
18014;BME280;9132;47.946;10.394;2024-03-23T04:07:34;93275.88;;;10.73;88.39
18014;BME280;9132;47.946;10.394;2024-03-23T04:10:00;93268.53;;;10.81;87.44
18014;BME280;9132;47.946;10.394;2024-03-23T04:12:27;93261.53;;;10.87;87.64
18014;BME280;9132;47.946;10.394;2024-03-23T04:14:53;93252.38;;;10.89;87.78
18014;BME280;9132;47.946;10.394;2024-03-23T04:17:19;93240.59;;;10.92;88.29
18014;BME280;9132;47.946;10.394;2024-03-23T04:19:45;93242.38;;;10.98;87.84
18014;BME280;9132;47.946;10.394;2024-03-23T04:22:12;93247.03;;;10.96;87.91
18014;BME280;9132;47.946;10.394;2024-03-23T04:24:39;93245.59;;;11.00;87.40
18014;BME280;9132;47.946;10.394;2024-03-23T04:27:05;93242.97;;;11.00;87.73
18014;BME280;9132;47.946;10.394;2024-03-23T04:29:31;93240.31;;;11.00;88.09
18014;BME280;9132;47.946;10.394;2024-03-23T04:31:57;93232.84;;;10.97;87.99
18014;BME280;9132;47.946;10.394;2024-03-23T04:34:23;93236.06;;;10.99;87.89
18014;BME280;9132;47.946;10.394;2024-03-23T04:36:50;93235.78;;;11.07;87.90
18014;BME280;9132;47.946;10.394;2024-03-23T04:39:15;93241.16;;;11.19;86.70
18014;BME280;9132;47.946;10.394;2024-03-23T04:41:43;93240.03;;;11.27;86.43
18014;BME280;9132;47.946;10.394;2024-03-23T04:44:10;93229.47;;;11.45;84.07
18014;BME280;9132;47.946;10.394;2024-03-23T04:46:37;93238.84;;;11.59;83.58
18014;BME280;9132;47.946;10.394;2024-03-23T04:49:03;93226.94;;;11.69;83.00
18014;BME280;9132;47.946;10.394;2024-03-23T04:51:35;93231.22;;;11.81;82.06
18014;BME280;9132;47.946;10.394;2024-03-23T04:54:02;93232.28;;;11.80;81.83
18014;BME280;9132;47.946;10.394;2024-03-23T04:56:29;93230.44;;;11.81;80.15
18014;BME280;9132;47.946;10.394;2024-03-23T04:58:58;93238.53;;;11.86;80.03
18014;BME280;9132;47.946;10.394;2024-03-23T05:01:26;93238.81;;;11.78;80.60
18014;BME280;9132;47.946;10.394;2024-03-23T05:03:53;93236.69;;;11.68;80.61
18014;BME280;9132;47.946;10.394;2024-03-23T05:06:18;93231.72;;;11.60;81.19
18014;BME280;9132;47.946;10.394;2024-03-23T05:08:45;93231.00;;;11.53;81.93
18014;BME280;9132;47.946;10.394;2024-03-23T05:11:11;93242.69;;;11.45;81.73
18014;BME280;9132;47.946;10.394;2024-03-23T05:13:37;93217.50;;;11.43;81.09
18014;BME280;9132;47.946;10.394;2024-03-23T05:16:05;93215.31;;;11.40;81.64
18014;BME280;9132;47.946;10.394;2024-03-23T05:18:31;93210.47;;;11.36;81.72
18014;BME280;9132;47.946;10.394;2024-03-23T05:20:57;93204.16;;;11.37;81.07
18014;BME280;9132;47.946;10.394;2024-03-23T05:23:24;93200.72;;;11.37;81.29
18014;BME280;9132;47.946;10.394;2024-03-23T05:25:49;93190.16;;;11.37;81.23
18014;BME280;9132;47.946;10.394;2024-03-23T05:28:17;93183.84;;;11.38;81.74
18014;BME280;9132;47.946;10.394;2024-03-23T05:30:42;93185.66;;;11.37;82.86
18014;BME280;9132;47.946;10.394;2024-03-23T05:33:10;93177.53;;;11.39;82.74
18014;BME280;9132;47.946;10.394;2024-03-23T05:35:36;93184.66;;;11.39;83.15
18014;BME280;9132;47.946;10.394;2024-03-23T05:38:02;93172.25;;;11.39;83.72
18014;BME280;9132;47.946;10.394;2024-03-23T05:40:28;93164.34;;;11.39;83.20
18014;BME280;9132;47.946;10.394;2024-03-23T05:42:54;93168.13;;;11.43;83.53
18014;BME280;9132;47.946;10.394;2024-03-23T05:45:21;93163.22;;;11.47;84.29
18014;BME280;9132;47.946;10.394;2024-03-23T05:47:47;93161.59;;;11.46;84.28
18014;BME280;9132;47.946;10.394;2024-03-23T05:50:14;93147.94;;;11.49;84.50
18014;BME280;9132;47.946;10.394;2024-03-23T05:52:41;93142.31;;;11.45;85.19
18014;BME280;9132;47.946;10.394;2024-03-23T05:55:09;93137.47;;;11.42;86.18
18014;BME280;9132;47.946;10.394;2024-03-23T05:57:35;93128.97;;;11.40;86.65
18014;BME280;9132;47.946;10.394;2024-03-23T06:00:01;93130.00;;;11.39;87.22
18014;BME280;9132;47.946;10.394;2024-03-23T06:02:29;93121.19;;;11.45;86.75
18014;BME280;9132;47.946;10.394;2024-03-23T06:04:54;93120.28;;;11.51;86.56
18014;BME280;9132;47.946;10.394;2024-03-23T06:07:22;93114.69;;;11.59;86.41
18014;BME280;9132;47.946;10.394;2024-03-23T06:09:48;93110.34;;;11.65;86.81
18014;BME280;9132;47.946;10.394;2024-03-23T06:12:16;93096.91;;;11.67;87.13
18014;BME280;9132;47.946;10.394;2024-03-23T06:14:41;93101.50;;;11.71;87.42
18014;BME280;9132;47.946;10.394;2024-03-23T06:17:08;93094.50;;;11.77;85.87
18014;BME280;9132;47.946;10.394;2024-03-23T06:19:33;93089.44;;;11.75;86.34
18014;BME280;9132;47.946;10.394;2024-03-23T06:22:00;93096.91;;;11.78;85.92
18014;BME280;9132;47.946;10.394;2024-03-23T06:24:27;93095.31;;;11.77;85.98
18014;BME280;9132;47.946;10.394;2024-03-23T06:26:53;93088.53;;;11.81;83.37
18014;BME280;9132;47.946;10.394;2024-03-23T06:29:19;93091.56;;;11.85;84.51
18014;BME280;9132;47.946;10.394;2024-03-23T06:31:53;93087.44;;;11.89;83.39
18014;BME280;9132;47.946;10.394;2024-03-23T06:34:18;93097.13;;;11.95;82.19
18014;BME280;9132;47.946;10.394;2024-03-23T06:36:46;93092.97;;;11.99;81.94
18014;BME280;9132;47.946;10.394;2024-03-23T06:39:12;93108.25;;;11.97;82.39
18014;BME280;9132;47.946;10.394;2024-03-23T06:41:41;93123.88;;;11.99;83.51
18014;BME280;9132;47.946;10.394;2024-03-23T06:44:07;93152.16;;;11.98;86.15
18014;BME280;9132;47.946;10.394;2024-03-23T06:46:34;93169.94;;;11.91;93.03
18014;BME280;9132;47.946;10.394;2024-03-23T06:48:59;93191.97;;;11.55;95.70
18014;BME280;9132;47.946;10.394;2024-03-23T06:51:26;93229.19;;;11.17;96.19
18014;BME280;9132;47.946;10.394;2024-03-23T06:53:51;93218.44;;;10.75;100.00
18014;BME280;9132;47.946;10.394;2024-03-23T06:56:18;93228.47;;;10.41;100.00
18014;BME280;9132;47.946;10.394;2024-03-23T06:58:45;93225.03;;;10.09;100.00
18014;BME280;9132;47.946;10.394;2024-03-23T07:01:11;93218.09;;;9.83;100.00
18014;BME280;9132;47.946;10.394;2024-03-23T07:03:37;93219.59;;;9.72;100.00
18014;BME280;9132;47.946;10.394;2024-03-23T07:06:03;93234.63;;;9.58;100.00
18014;BME280;9132;47.946;10.394;2024-03-23T07:08:29;93236.72;;;9.49;100.00
18014;BME280;9132;47.946;10.394;2024-03-23T07:10:55;93252.38;;;9.31;100.00
18014;BME280;9132;47.946;10.394;2024-03-23T07:13:21;93228.53;;;9.13;100.00
18014;BME280;9132;47.946;10.394;2024-03-23T07:15:52;93220.88;;;9.04;100.00
18014;BME280;9132;47.946;10.394;2024-03-23T07:18:18;93239.13;;;8.93;100.00
18014;BME280;9132;47.946;10.394;2024-03-23T07:20:52;93254.31;;;8.84;100.00
18014;BME280;9132;47.946;10.394;2024-03-23T07:23:17;93252.72;;;8.76;100.00
18014;BME280;9132;47.946;10.394;2024-03-23T07:25:44;93264.84;;;8.71;100.00
18014;BME280;9132;47.946;10.394;2024-03-23T07:28:09;93247.69;;;8.62;100.00
18014;BME280;9132;47.946;10.394;2024-03-23T07:30:36;93250.91;;;8.57;100.00
18014;BME280;9132;47.946;10.394;2024-03-23T07:33:03;93254.78;;;8.54;100.00
18014;BME280;9132;47.946;10.394;2024-03-23T07:35:29;93280.03;;;8.49;100.00
18014;BME280;9132;47.946;10.394;2024-03-23T07:37:55;93267.88;;;8.48;100.00
18014;BME280;9132;47.946;10.394;2024-03-23T07:40:21;93280.22;;;8.47;100.00
18014;BME280;9132;47.946;10.394;2024-03-23T07:42:47;93272.75;;;8.44;100.00
18014;BME280;9132;47.946;10.394;2024-03-23T07:45:14;93276.00;;;8.46;100.00
18014;BME280;9132;47.946;10.394;2024-03-23T07:47:39;93279.63;;;8.45;100.00
18014;BME280;9132;47.946;10.394;2024-03-23T07:50:08;93280.44;;;8.46;100.00
18014;BME280;9132;47.946;10.394;2024-03-23T07:52:34;93255.75;;;8.47;100.00
18014;BME280;9132;47.946;10.394;2024-03-23T07:55:01;93263.06;;;8.51;100.00
18014;BME280;9132;47.946;10.394;2024-03-23T07:57:26;93247.88;;;8.53;100.00
18014;BME280;9132;47.946;10.394;2024-03-23T07:59:53;93275.78;;;8.61;100.00
18014;BME280;9132;47.946;10.394;2024-03-23T08:02:18;93271.75;;;8.58;100.00
18014;BME280;9132;47.946;10.394;2024-03-23T08:04:44;93288.94;;;8.61;100.00
18014;BME280;9132;47.946;10.394;2024-03-23T08:07:11;93275.97;;;8.59;100.00
18014;BME280;9132;47.946;10.394;2024-03-23T08:09:38;93297.22;;;8.58;100.00
18014;BME280;9132;47.946;10.394;2024-03-23T08:12:04;93329.97;;;8.55;100.00
18014;BME280;9132;47.946;10.394;2024-03-23T08:14:31;93368.59;;;8.48;100.00
18014;BME280;9132;47.946;10.394;2024-03-23T08:16:56;93339.25;;;8.45;100.00
18014;BME280;9132;47.946;10.394;2024-03-23T08:19:23;93347.72;;;8.33;100.00
18014;BME280;9132;47.946;10.394;2024-03-23T08:21:48;93326.06;;;8.31;100.00
18014;BME280;9132;47.946;10.394;2024-03-23T08:24:18;93358.63;;;8.24;100.00
18014;BME280;9132;47.946;10.394;2024-03-23T08:26:44;93375.97;;;8.18;100.00
18014;BME280;9132;47.946;10.394;2024-03-23T08:29:11;93384.66;;;8.12;100.00
18014;BME280;9132;47.946;10.394;2024-03-23T08:31:36;93381.56;;;7.95;100.00
18014;BME280;9132;47.946;10.394;2024-03-23T08:34:04;93387.78;;;7.87;100.00
18014;BME280;9132;47.946;10.394;2024-03-23T08:36:29;93406.91;;;7.75;100.00
18014;BME280;9132;47.946;10.394;2024-03-23T08:38:56;93389.72;;;7.65;100.00
18014;BME280;9132;47.946;10.394;2024-03-23T08:41:23;93406.47;;;7.64;100.00
18014;BME280;9132;47.946;10.394;2024-03-23T08:43:50;93420.19;;;7.60;100.00
18014;BME280;9132;47.946;10.394;2024-03-23T08:46:16;93410.06;;;7.57;100.00
18014;BME280;9132;47.946;10.394;2024-03-23T08:48:44;93414.31;;;7.58;100.00
18014;BME280;9132;47.946;10.394;2024-03-23T08:51:12;93415.72;;;7.54;100.00
18014;BME280;9132;47.946;10.394;2024-03-23T08:53:39;93418.50;;;7.52;100.00
18014;BME280;9132;47.946;10.394;2024-03-23T08:56:06;93426.59;;;7.51;100.00
18014;BME280;9132;47.946;10.394;2024-03-23T08:58:35;93444.53;;;7.47;100.00
18014;BME280;9132;47.946;10.394;2024-03-23T09:01:06;93442.69;;;7.41;100.00
18014;BME280;9132;47.946;10.394;2024-03-23T09:03:33;93459.63;;;7.38;100.00
18014;BME280;9132;47.946;10.394;2024-03-23T09:05:59;93468.22;;;7.04;100.00
18014;BME280;9132;47.946;10.394;2024-03-23T09:08:26;93491.94;;;6.96;100.00
18014;BME280;9132;47.946;10.394;2024-03-23T09:10:52;93510.38;;;6.81;100.00
18014;BME280;9132;47.946;10.394;2024-03-23T09:13:18;93500.63;;;6.75;100.00
18014;BME280;9132;47.946;10.394;2024-03-23T09:15:49;93502.72;;;6.65;100.00
18014;BME280;9132;47.946;10.394;2024-03-23T09:18:16;93504.09;;;6.61;100.00
18014;BME280;9132;47.946;10.394;2024-03-23T09:20:42;93511.81;;;6.62;100.00
18014;BME280;9132;47.946;10.394;2024-03-23T09:23:09;93505.47;;;6.57;100.00
18014;BME280;9132;47.946;10.394;2024-03-23T09:25:36;93522.81;;;6.58;100.00
18014;BME280;9132;47.946;10.394;2024-03-23T09:28:03;93521.31;;;6.48;100.00
18014;BME280;9132;47.946;10.394;2024-03-23T09:30:29;93522.13;;;6.49;100.00
18014;BME280;9132;47.946;10.394;2024-03-23T09:32:57;93509.84;;;6.49;100.00
18014;BME280;9132;47.946;10.394;2024-03-23T09:35:22;93517.72;;;6.49;100.00
18014;BME280;9132;47.946;10.394;2024-03-23T09:37:49;93515.63;;;6.45;100.00
18014;BME280;9132;47.946;10.394;2024-03-23T09:40:14;93524.84;;;6.41;100.00
18014;BME280;9132;47.946;10.394;2024-03-23T09:42:41;93525.22;;;6.38;100.00
18014;BME280;9132;47.946;10.394;2024-03-23T09:45:17;93522.25;;;6.41;100.00
18014;BME280;9132;47.946;10.394;2024-03-23T09:47:44;93521.34;;;6.34;100.00
18014;BME280;9132;47.946;10.394;2024-03-23T09:50:13;93531.63;;;6.35;100.00
18014;BME280;9132;47.946;10.394;2024-03-23T09:52:39;93550.53;;;6.31;100.00
18014;BME280;9132;47.946;10.394;2024-03-23T09:55:07;93563.00;;;6.29;100.00
18014;BME280;9132;47.946;10.394;2024-03-23T09:57:34;93533.38;;;6.28;100.00
18014;BME280;9132;47.946;10.394;2024-03-23T10:00:00;93555.94;;;6.29;100.00
18014;BME280;9132;47.946;10.394;2024-03-23T10:02:27;93560.19;;;6.30;100.00
18014;BME280;9132;47.946;10.394;2024-03-23T10:04:54;93573.75;;;6.19;100.00
18014;BME280;9132;47.946;10.394;2024-03-23T10:07:21;93576.00;;;6.07;100.00
18014;BME280;9132;47.946;10.394;2024-03-23T10:09:47;93570.31;;;6.03;100.00
18014;BME280;9132;47.946;10.394;2024-03-23T10:12:17;93569.31;;;6.04;100.00
18014;BME280;9132;47.946;10.394;2024-03-23T10:14:43;93570.22;;;5.97;100.00
18014;BME280;9132;47.946;10.394;2024-03-23T10:17:14;93566.84;;;5.88;100.00
18014;BME280;9132;47.946;10.394;2024-03-23T10:19:40;93589.22;;;5.91;100.00
18014;BME280;9132;47.946;10.394;2024-03-23T10:22:08;93583.00;;;5.92;100.00
18014;BME280;9132;47.946;10.394;2024-03-23T10:24:35;93601.53;;;5.90;100.00
18014;BME280;9132;47.946;10.394;2024-03-23T10:27:02;93607.72;;;5.89;100.00
18014;BME280;9132;47.946;10.394;2024-03-23T10:29:28;93620.19;;;5.87;100.00
18014;BME280;9132;47.946;10.394;2024-03-23T10:32:07;93610.25;;;5.82;100.00
18014;BME280;9132;47.946;10.394;2024-03-23T10:34:33;93607.47;;;5.84;100.00
18014;BME280;9132;47.946;10.394;2024-03-23T10:37:01;93628.41;;;5.84;100.00
18014;BME280;9132;47.946;10.394;2024-03-23T10:39:27;93656.78;;;5.95;100.00
18014;BME280;9132;47.946;10.394;2024-03-23T10:41:56;93639.78;;;5.91;100.00
18014;BME280;9132;47.946;10.394;2024-03-23T10:44:22;93611.31;;;5.96;100.00
18014;BME280;9132;47.946;10.394;2024-03-23T10:46:50;93614.81;;;6.03;100.00
18014;BME280;9132;47.946;10.394;2024-03-23T10:49:16;93628.31;;;6.15;100.00
18014;BME280;9132;47.946;10.394;2024-03-23T10:51:42;93632.72;;;6.15;100.00
18014;BME280;9132;47.946;10.394;2024-03-23T10:54:08;93634.16;;;6.17;100.00
18014;BME280;9132;47.946;10.394;2024-03-23T10:56:39;93629.94;;;6.31;100.00
18014;BME280;9132;47.946;10.394;2024-03-23T10:59:06;93641.31;;;6.38;100.00
18014;BME280;9132;47.946;10.394;2024-03-23T11:01:34;93641.59;;;6.43;100.00
18014;BME280;9132;47.946;10.394;2024-03-23T11:04:00;93643.94;;;6.53;100.00
18014;BME280;9132;47.946;10.394;2024-03-23T11:06:34;93629.47;;;6.57;100.00
18014;BME280;9132;47.946;10.394;2024-03-23T11:09:00;93629.28;;;6.59;100.00
18014;BME280;9132;47.946;10.394;2024-03-23T11:11:27;93612.44;;;6.68;100.00
18014;BME280;9132;47.946;10.394;2024-03-23T11:13:54;93624.22;;;6.72;100.00
18014;BME280;9132;47.946;10.394;2024-03-23T11:16:26;93628.00;;;6.84;100.00
18014;BME280;9132;47.946;10.394;2024-03-23T11:18:53;93617.94;;;6.88;100.00
18014;BME280;9132;47.946;10.394;2024-03-23T11:21:54;93634.72;;;7.08;100.00
18014;BME280;9132;47.946;10.394;2024-03-23T11:24:21;93616.53;;;7.07;100.00
18014;BME280;9132;47.946;10.394;2024-03-23T11:26:48;93613.56;;;7.10;100.00
18014;BME280;9132;47.946;10.394;2024-03-23T11:29:14;93635.66;;;7.01;100.00
18014;BME280;9132;47.946;10.394;2024-03-23T11:31:47;93634.00;;;7.00;100.00
18014;BME280;9132;47.946;10.394;2024-03-23T11:34:14;93597.56;;;6.90;100.00
18014;BME280;9132;47.946;10.394;2024-03-23T11:36:41;93612.06;;;6.86;100.00
18014;BME280;9132;47.946;10.394;2024-03-23T11:39:13;93625.00;;;6.87;100.00
18014;BME280;9132;47.946;10.394;2024-03-23T11:41:46;93632.59;;;6.82;100.00
18014;BME280;9132;47.946;10.394;2024-03-23T11:44:15;93629.69;;;6.77;100.00
18014;BME280;9132;47.946;10.394;2024-03-23T11:46:41;93612.94;;;6.71;100.00
18014;BME280;9132;47.946;10.394;2024-03-23T11:49:19;93605.50;;;6.75;100.00
18014;BME280;9132;47.946;10.394;2024-03-23T11:51:47;93613.81;;;6.79;100.00
18014;BME280;9132;47.946;10.394;2024-03-23T11:54:12;93592.47;;;6.82;100.00
18014;BME280;9132;47.946;10.394;2024-03-23T11:56:39;93594.06;;;6.97;100.00
18014;BME280;9132;47.946;10.394;2024-03-23T11:59:06;93616.69;;;7.20;100.00
18014;BME280;9132;47.946;10.394;2024-03-23T12:01:33;93610.81;;;7.39;100.00
18014;BME280;9132;47.946;10.394;2024-03-23T12:03:58;93606.69;;;7.52;100.00
18014;BME280;9132;47.946;10.394;2024-03-23T12:06:26;93596.53;;;7.70;100.00
18014;BME280;9132;47.946;10.394;2024-03-23T12:08:52;93596.47;;;7.85;100.00
18014;BME280;9132;47.946;10.394;2024-03-23T12:11:18;93594.31;;;7.95;100.00
18014;BME280;9132;47.946;10.394;2024-03-23T12:13:45;93612.22;;;7.85;100.00
18014;BME280;9132;47.946;10.394;2024-03-23T12:16:14;93619.53;;;7.68;98.41
18014;BME280;9132;47.946;10.394;2024-03-23T12:18:41;93591.72;;;7.74;100.00
18014;BME280;9132;47.946;10.394;2024-03-23T12:21:08;93601.91;;;7.83;100.00
18014;BME280;9132;47.946;10.394;2024-03-23T12:23:35;93595.63;;;7.84;95.34
18014;BME280;9132;47.946;10.394;2024-03-23T12:26:02;93602.09;;;7.82;100.00
18014;BME280;9132;47.946;10.394;2024-03-23T12:28:28;93607.72;;;7.79;98.69
18014;BME280;9132;47.946;10.394;2024-03-23T12:30:55;93592.78;;;7.79;99.16
18014;BME280;9132;47.946;10.394;2024-03-23T12:33:20;93597.16;;;7.72;100.00
18014;BME280;9132;47.946;10.394;2024-03-23T12:35:48;93576.03;;;7.59;100.00
18014;BME280;9132;47.946;10.394;2024-03-23T12:38:14;93576.19;;;7.51;98.19
18014;BME280;9132;47.946;10.394;2024-03-23T12:40:42;93567.50;;;7.50;99.79
18014;BME280;9132;47.946;10.394;2024-03-23T12:43:08;93580.88;;;7.55;100.00
18014;BME280;9132;47.946;10.394;2024-03-23T12:45:34;93562.91;;;7.59;100.00
18014;BME280;9132;47.946;10.394;2024-03-23T12:48:00;93562.78;;;7.67;100.00
18014;BME280;9132;47.946;10.394;2024-03-23T12:50:26;93555.31;;;7.64;97.32
18014;BME280;9132;47.946;10.394;2024-03-23T12:52:52;93550.34;;;7.48;97.37
18014;BME280;9132;47.946;10.394;2024-03-23T12:55:18;93552.00;;;7.55;100.00
18014;BME280;9132;47.946;10.394;2024-03-23T12:57:47;93556.31;;;7.63;99.36
18014;BME280;9132;47.946;10.394;2024-03-23T13:00:13;93551.66;;;7.65;100.00
18014;BME280;9132;47.946;10.394;2024-03-23T13:02:41;93544.94;;;7.56;100.00
18014;BME280;9132;47.946;10.394;2024-03-23T13:05:07;93543.75;;;7.37;100.00
18014;BME280;9132;47.946;10.394;2024-03-23T13:07:34;93521.22;;;7.21;100.00
18014;BME280;9132;47.946;10.394;2024-03-23T13:10:00;93517.91;;;7.12;100.00
18014;BME280;9132;47.946;10.394;2024-03-23T13:12:27;93514.53;;;7.18;100.00
18014;BME280;9132;47.946;10.394;2024-03-23T13:14:54;93517.38;;;7.17;100.00
18014;BME280;9132;47.946;10.394;2024-03-23T13:17:20;93507.00;;;7.09;100.00
18014;BME280;9132;47.946;10.394;2024-03-23T13:19:46;93512.63;;;7.06;100.00
18014;BME280;9132;47.946;10.394;2024-03-23T13:22:12;93505.69;;;6.98;100.00
18014;BME280;9132;47.946;10.394;2024-03-23T13:24:38;93515.13;;;6.92;100.00
18014;BME280;9132;47.946;10.394;2024-03-23T13:27:05;93528.38;;;6.84;100.00
18014;BME280;9132;47.946;10.394;2024-03-23T13:29:33;93527.28;;;6.79;100.00
18014;BME280;9132;47.946;10.394;2024-03-23T13:32:02;93543.41;;;6.61;100.00
18014;BME280;9132;47.946;10.394;2024-03-23T13:34:27;93552.03;;;6.40;100.00
18014;BME280;9132;47.946;10.394;2024-03-23T13:36:54;93570.97;;;6.06;100.00
18014;BME280;9132;47.946;10.394;2024-03-23T13:39:21;93589.31;;;5.68;100.00
18014;BME280;9132;47.946;10.394;2024-03-23T13:41:48;93596.84;;;5.25;100.00
18014;BME280;9132;47.946;10.394;2024-03-23T13:44:14;93598.22;;;4.90;100.00
18014;BME280;9132;47.946;10.394;2024-03-23T13:46:42;93598.22;;;4.90;100.00
18014;BME280;9132;47.946;10.394;2024-03-23T13:49:20;93612.38;;;4.33;100.00